METAR Data
IDs: Format: Raw Decoded Include TAF

Data at: 0141 UTC 26 Apr 2019

PASD 260056Z 01009KT 10SM SCT035 05/M04 A3028 RMK AO2 SLP255 T00501044
PASD 252356Z 01009KT 10SM SCT032 05/M05 A3028 RMK AO2 SLP256 60000 T00501050 10050 20028 53009
PASD 252256Z 01008KT 10SM SCT034 05/M06 A3027 RMK AO2 SLP252 T00501056
PASD 252156Z 03007KT 10SM FEW032 FEW110 04/M05 A3026 RMK AO2 SLP248 T00441050
PASD 252056Z 02007KT 10SM FEW027 FEW110 04/M06 A3025 RMK AO2 SLP247 60000 T00391061 51010
PASD 251956Z 01009KT 10SM FEW031 FEW110 04/M07 A3024 RMK AO2 RAB26E36 SLP244 P0000 T00391067
PASD 251855Z 35008KT 10SM FEW028 FEW110 03/M06 A3023
PASD 251756Z 01009KT 10SM FEW027 FEW110 03/M05 A3022 RMK AO2 SLP237 T00281050 10028 20011 53014
PASD 251656Z 36011KT 10SM FEW028 02/M04 A3020 RMK AO2 SLP230 T00221044
PASD 251556Z 36010KT 10SM FEW028 02/M05 A3019 RMK AO2 SLP225 T00171050
PASD 251455Z 35011KT 10SM SKC 02/M04 A3018
PASD 251356Z AUTO 34007KT 10SM CLR 01/M04 A3018 RMK AO2 SLP222 T00111039 FZRANO
PASD 251256Z AUTO 02005KT 10SM CLR 01/M04 A3017 RMK AO2 SLP220 T00111044 FZRANO
PASD 251156Z AUTO 36007KT 10SM CLR 02/M06 A3016 RMK AO2 SLP217 T00171056 10017 20011 51007 FZRANO
PASD 251056Z AUTO 36009KT 10SM CLR 02/M06 A3016 RMK AO2 SLP215 T00171056 FZRANO
PASD 250956Z AUTO 01011KT 10SM CLR 01/M06 A3015 RMK AO2 SLP214 T00111061 FZRANO
PASD 250856Z AUTO 36011KT 10SM CLR 01/M06 A3014 RMK AO2 SLP210 T00111061 400391006 51018 FZRANO
PASD 250756Z AUTO 35014KT 10SM CLR 01/M06 A3013 RMK AO2 SLP206 T00111061 FZRANO
PASD 250656Z AUTO 34013KT 10SM CLR 01/M06 A3011 RMK AO2 SLP200 T00111061 FZRANO
PASD 250556Z AUTO 34014KT 10SM CLR 02/M06 A3009 RMK AO2 SLP192 T00171061 10039 20017 53013 FZRANO
PASD 250456Z AUTO 35016KT 10SM CLR 02/M06 A3007 RMK AO2 SLP184 T00221056 FZRANO
PASD 250356Z AUTO 34019G24KT 10SM CLR 02/M06 A3006 RMK AO2 SLP182 T00221056 FZRANO
PASD 250256Z 35018KT 10SM FEW038 03/M06 A3005 RMK AO2 SLP179 T00281056 51013
PASD 250156Z 35017KT 10SM SCT034 SCT090 03/M06 A3004 RMK AO2 SLP175 T00331056
PASD 242356Z 34020G23KT 10SM FEW028 SCT039 03/M07 A3001 RMK AO2 RAB39E50 SLP166 P0000 60000 T00331067 10039 20011 51011
PASD 242327Z 35017KT 10SM FEW028 SCT039 03/M06 A3001 RMK AO2
PASD 242256Z 35018KT 10SM SCT024 BKN039 03/M07 A3001 RMK AO2 SLP164 T00331067
PASD 242155Z 35017KT 10SM FEW026 BKN035 03/M05 A3000 RMK PK WND 34026/45
PASD 242056Z 33018KT 10SM BKN029 BKN036 03/M04 A2998 RMK AO2 UPB21E38 SLP155 P0000 60000 T00281044 51014
PASD 241956Z 33013KT 10SM BKN024 BKN029 02/M04 A2997 RMK AO2 SLP150 T00221039
PASD 241856Z 31009KT 10SM SCT024 BKN029 02/M03 A2996 RMK AO2 SLP147 T00171033
PASD 241843Z 32011KT 10SM BKN024 BKN029 01/M04 A2996 RMK AO2
PASD 241756Z 32013KT 10SM SCT024 SCT034 01/M04 A2994 RMK AO2 SLP142 T00111044 10011 21006 51013
PASD 241656Z 30010KT 10SM FEW028 FEW044 SCT120 01/M04 A2993 RMK AO2 SLP137 T00061039
PASD 241627Z 29010KT 10SM FEW028 FEW044 SCT120 00/M03 A2993 RMK AO2
PASD 241607Z 29008KT 10SM SCT031 SCT045 BKN110 00/M03 A2992 RMK AO2
PASD 241556Z 30007KT 10SM BKN031 BKN045 BKN110 00/M03 A2992 RMK AO2 SLP135 T00001033
PASD 241456Z 31010KT 10SM FEW032 FEW045 SCT120 00/M03 A2991 RMK AO2 SLP129 T00001033 53006
PASD 241356Z AUTO 28007KT 10SM FEW120 M01/M03 A2989 RMK AO2 SLP125 T10061033 FZRANO